createdAt,value
2023-02-22T00:00:27.847Z,995.35
2023-02-22T00:01:27.834Z,995.31
2023-02-22T00:02:27.825Z,995.31
2023-02-22T00:03:27.910Z,995.28
2023-02-22T00:04:27.807Z,995.27
2023-02-22T00:05:27.778Z,995.35
2023-02-22T00:06:27.771Z,995.39
2023-02-22T00:07:27.760Z,995.35
2023-02-22T00:08:27.749Z,995.31
2023-02-22T00:09:27.730Z,995.34
2023-02-22T00:10:27.717Z,995.32
2023-02-22T00:11:27.703Z,995.33
2023-02-22T00:12:27.695Z,995.28
2023-02-22T00:13:27.703Z,995.24
2023-02-22T00:14:27.668Z,995.26
2023-02-22T00:15:27.653Z,995.26
2023-02-22T00:16:27.807Z,995.26
2023-02-22T00:17:27.627Z,995.25
2023-02-22T00:18:27.615Z,995.27
2023-02-22T00:19:27.622Z,995.26
2023-02-22T00:20:27.587Z,995.24
2023-02-22T00:21:27.580Z,995.22
2023-02-22T00:22:27.566Z,995.25
2023-02-22T00:23:27.551Z,995.23
2023-02-22T00:24:27.537Z,995.19
2023-02-22T00:25:27.532Z,995.22
2023-02-22T00:26:27.527Z,995.17
2023-02-22T00:27:27.498Z,995.24
2023-02-22T00:28:27.499Z,995.21
2023-02-22T00:29:27.495Z,995.18
2023-02-22T00:30:27.498Z,995.15
2023-02-22T00:31:27.461Z,995.15
2023-02-22T00:32:27.478Z,995.19
2023-02-22T00:33:27.418Z,995.14
2023-02-22T00:34:27.411Z,995.16
2023-02-22T00:35:27.392Z,995.12
2023-02-22T00:36:27.380Z,995.14
2023-02-22T00:37:27.367Z,995.16
2023-02-22T00:38:27.357Z,995.13
2023-02-22T00:39:27.341Z,995.20
2023-02-22T00:40:27.329Z,995.10
2023-02-22T00:41:27.335Z,995.18
2023-02-22T00:42:27.303Z,995.20
2023-02-22T00:43:27.290Z,995.13
2023-02-22T00:44:27.279Z,995.22
2023-02-22T00:45:27.381Z,995.21
2023-02-22T00:46:27.249Z,995.20
2023-02-22T00:47:27.244Z,995.14
2023-02-22T00:48:27.226Z,995.18
2023-02-22T00:49:27.240Z,995.12
2023-02-22T00:50:27.203Z,995.10
2023-02-22T00:51:27.187Z,995.07
2023-02-22T00:52:27.175Z,995.03
2023-02-22T00:53:27.168Z,995.07
2023-02-22T00:54:27.148Z,995.02
2023-02-22T00:55:27.144Z,995.01
2023-02-22T00:56:27.124Z,995.00
2023-02-22T00:57:27.110Z,995.00
2023-02-22T00:58:27.099Z,995.02
2023-02-22T00:59:27.083Z,994.98
2023-02-22T01:00:27.074Z,995.01
2023-02-22T01:01:27.099Z,995.02
2023-02-22T01:02:27.078Z,995.04
2023-02-22T01:03:27.030Z,994.96
2023-02-22T01:04:27.019Z,994.94
2023-02-22T01:05:27.027Z,994.91
2023-02-22T01:06:26.995Z,994.97
2023-02-22T01:07:26.981Z,994.98
2023-02-22T01:08:26.970Z,994.95
2023-02-22T01:09:26.953Z,994.96
2023-02-22T01:10:26.943Z,994.99
2023-02-22T01:11:26.926Z,994.99
2023-02-22T01:12:26.932Z,994.94
2023-02-22T01:13:26.900Z,994.92
2023-02-22T01:14:26.890Z,994.95
2023-02-22T01:15:26.876Z,994.91
2023-02-22T01:16:26.887Z,994.91
2023-02-22T01:17:26.889Z,994.88
2023-02-22T01:18:26.838Z,994.86
2023-02-22T01:19:26.823Z,994.88
2023-02-22T01:20:26.812Z,994.87
2023-02-22T01:21:26.797Z,994.90
2023-02-22T01:22:26.789Z,994.86
2023-02-22T01:23:26.772Z,994.86
2023-02-22T01:24:26.759Z,994.82
2023-02-22T01:25:26.755Z,994.82
2023-02-22T01:26:26.736Z,994.80
2023-02-22T01:27:26.720Z,994.76
2023-02-22T01:28:26.710Z,994.73
2023-02-22T01:29:26.696Z,994.74
2023-02-22T01:30:26.788Z,994.71
2023-02-22T01:31:26.725Z,994.73
2023-02-22T01:32:26.661Z,994.76
2023-02-22T01:33:26.669Z,994.66
2023-02-22T01:34:26.647Z,994.68
2023-02-22T01:35:26.616Z,994.68
2023-02-22T01:36:26.606Z,994.65
2023-02-22T01:37:26.590Z,994.65
2023-02-22T01:38:26.579Z,994.65
2023-02-22T01:39:26.564Z,994.67
2023-02-22T01:40:26.556Z,994.63
2023-02-22T01:41:26.538Z,994.64
2023-02-22T01:42:26.525Z,994.65
2023-02-22T01:43:26.511Z,994.62
2023-02-22T01:44:26.500Z,994.63
2023-02-22T01:45:26.485Z,994.67
2023-02-22T01:46:26.510Z,994.63
2023-02-22T01:47:26.458Z,994.64
2023-02-22T01:48:26.448Z,994.57
2023-02-22T01:49:26.458Z,994.54
2023-02-22T01:50:26.422Z,994.59
2023-02-22T01:51:26.413Z,994.56
2023-02-22T01:52:26.399Z,994.58
2023-02-22T01:53:26.382Z,994.55
2023-02-22T01:54:26.374Z,994.49
2023-02-22T01:55:26.360Z,994.46
2023-02-22T01:56:26.351Z,994.46
2023-02-22T01:57:26.326Z,994.48
2023-02-22T01:58:26.317Z,994.45
2023-02-22T01:59:26.316Z,994.46
2023-02-22T02:00:26.292Z,994.46
2023-02-22T02:01:26.278Z,994.42
2023-02-22T02:02:26.296Z,994.43
2023-02-22T02:03:26.260Z,994.44
2023-02-22T02:04:26.247Z,994.39
2023-02-22T02:05:26.249Z,994.46
2023-02-22T02:06:26.214Z,994.39
2023-02-22T02:07:26.204Z,994.39
2023-02-22T02:08:26.189Z,994.42
2023-02-22T02:09:26.174Z,994.44
2023-02-22T02:10:26.163Z,994.44
2023-02-22T02:11:26.148Z,994.39
2023-02-22T02:12:26.137Z,994.44
2023-02-22T02:13:26.133Z,994.45
2023-02-22T02:14:26.117Z,994.39
2023-02-22T02:15:26.101Z,994.47
2023-02-22T02:16:26.109Z,994.40
2023-02-22T02:17:26.073Z,994.40
2023-02-22T02:18:26.063Z,994.40
2023-02-22T02:19:26.049Z,994.37
2023-02-22T02:20:26.037Z,994.36
2023-02-22T02:21:26.049Z,994.33
2023-02-22T02:22:26.017Z,994.32
2023-02-22T02:23:25.996Z,994.38
2023-02-22T02:24:25.986Z,994.32
2023-02-22T02:25:25.970Z,994.32
2023-02-22T02:26:25.961Z,994.34
2023-02-22T02:27:25.946Z,994.35
2023-02-22T02:28:25.935Z,994.31
2023-02-22T02:29:25.919Z,994.36
2023-02-22T02:30:25.967Z,994.32
2023-02-22T02:31:26.038Z,994.30
2023-02-22T02:32:25.962Z,994.32
2023-02-22T02:33:25.873Z,994.34
2023-02-22T02:34:25.858Z,994.31
2023-02-22T02:35:25.842Z,994.25
2023-02-22T02:36:25.838Z,994.27
2023-02-22T02:37:25.863Z,994.26
2023-02-22T02:38:25.833Z,994.23
2023-02-22T02:39:25.815Z,994.21
2023-02-22T02:40:25.831Z,994.28
2023-02-22T02:41:25.768Z,994.25
2023-02-22T02:42:25.755Z,994.23
2023-02-22T02:43:25.738Z,994.20
2023-02-22T02:44:25.738Z,994.20
2023-02-22T02:45:25.714Z,994.20
2023-02-22T02:46:25.708Z,994.19
2023-02-22T02:47:25.732Z,994.19
2023-02-22T02:48:25.682Z,994.13
2023-02-22T02:49:25.661Z,994.15
2023-02-22T02:50:25.652Z,994.19
2023-02-22T02:51:25.640Z,994.12
2023-02-22T02:52:25.628Z,994.18
2023-02-22T02:53:25.635Z,994.11
2023-02-22T02:54:25.602Z,994.17
2023-02-22T02:56:25.575Z,994.16
2023-02-22T02:57:25.564Z,994.17
2023-02-22T02:58:25.551Z,994.17
2023-02-22T02:59:25.544Z,994.10
2023-02-22T03:00:25.527Z,994.14
2023-02-22T03:01:25.531Z,994.13
2023-02-22T03:02:25.504Z,994.12
2023-02-22T03:03:25.493Z,994.11
2023-02-22T03:04:25.476Z,994.09
2023-02-22T03:05:25.464Z,994.16
2023-02-22T03:06:25.461Z,994.09
2023-02-22T03:07:25.503Z,994.09
2023-02-22T03:08:25.428Z,994.14
2023-02-22T03:09:25.439Z,994.14
2023-02-22T03:10:25.409Z,994.03
2023-02-22T03:11:25.391Z,994.14
2023-02-22T03:12:25.374Z,994.13
2023-02-22T03:13:25.372Z,994.14
2023-02-22T03:14:25.357Z,994.07
2023-02-22T03:15:25.338Z,994.09
2023-02-22T03:16:25.369Z,994.09
2023-02-22T03:17:25.314Z,994.12
2023-02-22T03:18:25.313Z,994.05
2023-02-22T03:19:25.299Z,994.06
2023-02-22T03:20:25.278Z,994.05
2023-02-22T03:21:25.265Z,994.05
2023-02-22T03:22:25.254Z,994.05
2023-02-22T03:23:25.345Z,994.05
2023-02-22T03:24:25.230Z,994.03
2023-02-22T03:25:25.241Z,994.05
2023-02-22T03:26:25.214Z,994.08
2023-02-22T03:27:25.191Z,994.07
2023-02-22T03:28:25.182Z,994.02
2023-02-22T03:29:25.165Z,994.05
2023-02-22T03:30:25.199Z,994.06
2023-02-22T03:31:25.146Z,994.08
2023-02-22T03:32:25.222Z,994.07
2023-02-22T03:33:25.118Z,994.10
2023-02-22T03:34:25.108Z,994.04
2023-02-22T03:35:25.094Z,994.05
2023-02-22T03:36:25.118Z,994.05
2023-02-22T03:37:25.071Z,994.07
2023-02-22T03:38:25.058Z,994.06
2023-02-22T03:39:25.047Z,994.05
2023-02-22T03:40:25.037Z,994.08
2023-02-22T03:41:25.060Z,994.02
2023-02-22T03:42:25.008Z,994.08
2023-02-22T03:43:25.033Z,994.03
2023-02-22T03:44:24.991Z,994.01
2023-02-22T03:45:24.972Z,994.07
2023-02-22T03:46:25.011Z,994.01
2023-02-22T03:47:24.945Z,994.08
2023-02-22T03:48:24.932Z,994.04
2023-02-22T03:49:24.918Z,994.02
2023-02-22T03:50:24.908Z,994.03
2023-02-22T03:51:24.914Z,994.02
2023-02-22T03:52:24.882Z,994.05
2023-02-22T03:53:24.864Z,993.99
2023-02-22T03:54:24.860Z,994.00
2023-02-22T03:55:24.837Z,994.00
2023-02-22T03:56:24.826Z,993.99
2023-02-22T03:57:24.835Z,994.03
2023-02-22T03:58:24.799Z,994.01
2023-02-22T03:59:24.781Z,994.03
2023-02-22T04:00:24.771Z,993.99
2023-02-22T04:01:24.757Z,994.02
2023-02-22T04:02:24.741Z,993.99
2023-02-22T04:03:24.733Z,993.96
2023-02-22T04:04:24.745Z,993.95
2023-02-22T04:05:24.712Z,994.02
2023-02-22T04:06:24.687Z,994.04
2023-02-22T04:07:24.676Z,993.97
2023-02-22T04:08:24.658Z,993.95
2023-02-22T04:09:24.656Z,993.99
2023-02-22T04:10:24.653Z,994.02
2023-02-22T04:11:24.627Z,993.97
2023-02-22T04:12:24.608Z,994.07
2023-02-22T04:13:24.619Z,993.97
2023-02-22T04:14:24.582Z,993.95
2023-02-22T04:15:24.570Z,993.96
2023-02-22T04:16:24.554Z,993.95
2023-02-22T04:17:24.542Z,993.99
2023-02-22T04:18:24.529Z,993.99
2023-02-22T04:19:24.519Z,993.96
2023-02-22T04:20:24.500Z,993.97
2023-02-22T04:21:24.496Z,993.99
2023-02-22T04:22:24.478Z,994.02
2023-02-22T04:23:24.465Z,994.00
2023-02-22T04:24:24.447Z,993.97
2023-02-22T04:25:24.478Z,993.97
2023-02-22T04:26:24.427Z,993.92
2023-02-22T04:27:24.409Z,993.94
2023-02-22T04:28:24.396Z,993.90
2023-02-22T04:29:24.414Z,993.90
2023-02-22T04:30:24.417Z,993.94
2023-02-22T04:31:24.390Z,993.92
2023-02-22T04:32:24.391Z,993.99
2023-02-22T04:33:24.352Z,993.96
2023-02-22T04:34:24.323Z,993.96
2023-02-22T04:35:24.305Z,993.97
2023-02-22T04:36:24.291Z,993.86
2023-02-22T04:37:24.278Z,993.95
2023-02-22T04:38:24.263Z,993.91
2023-02-22T04:39:24.286Z,993.86
2023-02-22T04:40:24.237Z,993.90
2023-02-22T04:41:25.613Z,993.96
2023-02-22T04:42:24.210Z,993.91
2023-02-22T04:43:24.204Z,993.88
2023-02-22T04:44:24.184Z,993.88
2023-02-22T04:45:24.195Z,993.86
2023-02-22T04:46:24.221Z,993.93
2023-02-22T04:47:24.148Z,993.93
2023-02-22T04:48:24.133Z,993.93
2023-02-22T04:49:24.123Z,993.91
2023-02-22T04:50:24.107Z,993.94
2023-02-22T04:51:24.096Z,993.88
2023-02-22T04:52:24.083Z,993.95
2023-02-22T04:53:24.070Z,993.95
2023-02-22T04:54:24.056Z,994.01
2023-02-22T04:55:24.052Z,993.94
2023-02-22T04:56:24.035Z,993.92
2023-02-22T04:57:24.025Z,993.93
2023-02-22T04:58:24.019Z,993.94
2023-02-22T04:59:23.992Z,993.91
2023-02-22T05:00:23.980Z,993.92
2023-02-22T05:01:23.993Z,993.86
2023-02-22T05:02:24.042Z,993.85
2023-02-22T05:03:23.945Z,993.84
2023-02-22T05:04:23.950Z,993.83
2023-02-22T05:05:23.921Z,993.84
2023-02-22T05:06:23.899Z,993.87
2023-02-22T05:07:23.889Z,993.90
2023-02-22T05:08:23.873Z,993.88
2023-02-22T05:09:23.888Z,993.86
2023-02-22T05:10:23.847Z,993.87
2023-02-22T05:11:23.837Z,993.84
2023-02-22T05:12:23.824Z,993.84
2023-02-22T05:13:23.806Z,993.79
2023-02-22T05:14:23.792Z,993.78
2023-02-22T05:15:23.781Z,993.79
2023-02-22T05:16:23.860Z,993.76
2023-02-22T05:17:23.784Z,993.81
2023-02-22T05:18:23.737Z,993.81
2023-02-22T05:19:23.725Z,993.71
2023-02-22T05:20:23.709Z,993.76
2023-02-22T05:21:23.698Z,993.77
2023-02-22T05:22:23.683Z,993.80
2023-02-22T05:23:23.691Z,993.78
2023-02-22T05:24:23.670Z,993.79
2023-02-22T05:25:23.643Z,993.80
2023-02-22T05:26:23.672Z,993.73
2023-02-22T05:27:23.620Z,993.74
2023-02-22T05:28:23.605Z,993.72
2023-02-22T05:29:23.589Z,993.77
2023-02-22T05:30:23.685Z,993.72
2023-02-22T05:31:23.699Z,993.77
2023-02-22T05:32:23.577Z,993.73
2023-02-22T05:33:23.560Z,993.76
2023-02-22T05:34:23.519Z,993.72
2023-02-22T05:35:23.531Z,993.76
2023-02-22T05:36:23.495Z,993.72
2023-02-22T05:37:23.482Z,993.77
2023-02-22T05:38:23.480Z,993.73
2023-02-22T05:39:23.462Z,993.74
2023-02-22T05:40:23.441Z,993.75
2023-02-22T05:41:23.429Z,993.76
2023-02-22T05:42:23.424Z,993.76
2023-02-22T05:43:23.403Z,993.76
2023-02-22T05:44:23.388Z,993.74
2023-02-22T05:45:23.377Z,993.72
2023-02-22T05:46:23.424Z,993.78
2023-02-22T05:47:23.348Z,993.73
2023-02-22T05:48:23.333Z,993.68
2023-02-22T05:49:23.361Z,993.70
2023-02-22T05:50:23.306Z,993.74
2023-02-22T05:51:23.295Z,993.69
2023-02-22T05:52:23.278Z,993.75
2023-02-22T05:53:23.266Z,993.71
2023-02-22T05:54:23.252Z,993.72
2023-02-22T05:55:23.254Z,993.71
2023-02-22T05:56:23.230Z,993.65
2023-02-22T05:57:23.210Z,993.69
2023-02-22T05:58:23.199Z,993.66
2023-02-22T05:59:23.182Z,993.70
2023-02-22T06:00:23.197Z,993.68
2023-02-22T06:01:23.157Z,993.67
2023-02-22T06:02:23.143Z,993.68
2023-02-22T06:03:23.131Z,993.63
2023-02-22T06:04:23.115Z,993.65
2023-02-22T06:05:23.179Z,993.62
2023-02-22T06:06:23.092Z,993.66
2023-02-22T06:07:23.075Z,993.69
2023-02-22T06:08:23.059Z,993.70
2023-02-22T06:09:23.051Z,993.66
2023-02-22T06:10:23.039Z,993.61
2023-02-22T06:11:23.025Z,993.67
2023-02-22T06:12:23.003Z,993.60
2023-02-22T06:13:22.998Z,993.60
2023-02-22T06:14:22.982Z,993.64
2023-02-22T06:15:22.985Z,993.61
2023-02-22T06:16:23.028Z,993.65
2023-02-22T06:17:22.944Z,993.70
2023-02-22T06:18:22.935Z,993.62
2023-02-22T06:19:22.912Z,993.64
2023-02-22T06:20:22.900Z,993.68
2023-02-22T06:21:22.918Z,993.67
2023-02-22T06:22:22.880Z,993.72
2023-02-22T06:23:22.862Z,993.74
2023-02-22T06:24:22.844Z,993.70
2023-02-22T06:25:22.834Z,993.70
2023-02-22T06:26:22.846Z,993.69
2023-02-22T06:27:22.829Z,993.71
2023-02-22T06:28:22.790Z,993.77
2023-02-22T06:29:22.777Z,993.72
2023-02-22T06:30:22.835Z,993.74
2023-02-22T06:31:22.803Z,993.73
2023-02-22T06:32:22.789Z,993.68
2023-02-22T06:33:22.724Z,993.76
2023-02-22T06:34:22.713Z,993.71
2023-02-22T06:35:22.707Z,993.71
2023-02-22T06:36:22.683Z,993.75
2023-02-22T06:37:22.697Z,993.73
2023-02-22T06:38:22.661Z,993.76
2023-02-22T06:39:22.646Z,993.75
2023-02-22T06:40:22.628Z,993.79
2023-02-22T06:41:22.616Z,993.80
2023-02-22T06:42:22.691Z,993.79
2023-02-22T06:43:22.588Z,993.78
2023-02-22T06:44:22.576Z,993.85
2023-02-22T06:45:22.628Z,993.80
2023-02-22T06:46:22.546Z,993.83
2023-02-22T06:47:22.537Z,993.78
2023-02-22T06:48:22.519Z,993.84
2023-02-22T06:49:22.508Z,993.83
2023-02-22T06:50:22.512Z,993.83
2023-02-22T06:51:22.483Z,993.79
2023-02-22T06:52:22.464Z,993.81
2023-02-22T06:53:22.481Z,993.79
2023-02-22T06:54:22.441Z,993.78
2023-02-22T06:55:22.425Z,993.77
2023-02-22T06:56:22.411Z,993.83
2023-02-22T06:57:22.398Z,993.81
2023-02-22T06:58:22.386Z,993.85
2023-02-22T06:59:22.373Z,993.81
2023-02-22T07:00:22.364Z,993.80
2023-02-22T07:01:22.416Z,993.79
2023-02-22T07:02:22.333Z,993.80
2023-02-22T07:03:22.387Z,993.76
2023-02-22T07:04:22.306Z,993.74
2023-02-22T07:05:22.301Z,993.77
2023-02-22T07:06:22.280Z,993.82
2023-02-22T07:07:22.267Z,993.78
2023-02-22T07:08:22.255Z,993.84
2023-02-22T07:09:22.267Z,993.83
2023-02-22T07:10:22.233Z,993.88
2023-02-22T07:11:22.216Z,993.87
2023-02-22T07:12:22.204Z,993.88
2023-02-22T07:13:22.188Z,993.86
2023-02-22T07:14:22.175Z,993.87
2023-02-22T07:15:22.161Z,993.84
2023-02-22T07:16:22.211Z,993.90
2023-02-22T07:17:22.136Z,993.87
2023-02-22T07:18:22.120Z,993.88
2023-02-22T07:19:22.107Z,993.82
2023-02-22T07:20:22.110Z,993.84
2023-02-22T07:21:22.089Z,993.88
2023-02-22T07:22:22.068Z,993.87
2023-02-22T07:23:22.059Z,993.88
2023-02-22T07:24:22.044Z,993.84
2023-02-22T07:25:22.056Z,993.89
2023-02-22T07:26:22.016Z,993.88
2023-02-22T07:27:22.003Z,993.86
2023-02-22T07:28:21.988Z,993.91
2023-02-22T07:29:21.977Z,993.86
2023-02-22T07:30:21.976Z,993.92
2023-02-22T07:31:21.952Z,993.85
2023-02-22T07:32:22.021Z,993.85
2023-02-22T07:33:21.924Z,993.81
2023-02-22T07:34:21.911Z,993.80
2023-02-22T07:35:21.914Z,993.85
2023-02-22T07:36:21.889Z,993.82
2023-02-22T07:37:21.873Z,993.87
2023-02-22T07:38:21.860Z,993.87
2023-02-22T07:39:21.848Z,993.80
2023-02-22T07:40:21.842Z,993.90
2023-02-22T07:41:21.869Z,993.80
2023-02-22T07:42:21.806Z,993.80
2023-02-22T07:43:21.815Z,993.83
2023-02-22T07:44:21.781Z,993.73
2023-02-22T07:45:21.814Z,993.81
2023-02-22T07:46:21.756Z,993.81
2023-02-22T07:47:21.745Z,993.83
2023-02-22T07:48:21.730Z,993.81
2023-02-22T07:49:21.726Z,993.85
2023-02-22T07:50:21.720Z,993.81
2023-02-22T07:51:21.692Z,993.82
2023-02-22T07:52:21.680Z,993.83
2023-02-22T07:53:21.666Z,993.81
2023-02-22T07:54:21.656Z,993.81
2023-02-22T07:55:21.642Z,993.78
2023-02-22T07:56:21.630Z,993.80
2023-02-22T07:57:21.640Z,993.76
2023-02-22T07:58:21.617Z,993.76
2023-02-22T07:59:21.625Z,993.78
2023-02-22T08:00:21.583Z,993.83
2023-02-22T08:01:21.605Z,993.82
2023-02-22T08:02:21.594Z,993.79
2023-02-22T08:03:21.642Z,993.83
2023-02-22T08:04:21.531Z,993.83
2023-02-22T08:05:21.551Z,993.80
2023-02-22T08:06:21.537Z,993.78
2023-02-22T08:07:21.488Z,993.81
2023-02-22T08:08:21.479Z,993.79
2023-02-22T08:09:21.468Z,993.88
2023-02-22T08:10:21.448Z,993.79
2023-02-22T08:11:21.435Z,993.82
2023-02-22T08:12:21.423Z,993.86
2023-02-22T08:13:21.431Z,993.90
2023-02-22T08:14:21.395Z,993.86
2023-02-22T08:15:21.391Z,993.86
2023-02-22T08:16:21.373Z,993.91
2023-02-22T08:17:21.481Z,993.89
2023-02-22T08:18:21.364Z,993.88
2023-02-22T08:19:21.329Z,993.84
2023-02-22T08:20:21.318Z,993.82
2023-02-22T08:21:21.303Z,993.83
2023-02-22T08:22:22.100Z,993.79
2023-02-22T08:23:21.276Z,993.81
2023-02-22T08:24:21.268Z,993.78
2023-02-22T08:25:21.265Z,993.76
2023-02-22T08:26:21.240Z,993.75
2023-02-22T08:27:21.228Z,993.68
2023-02-22T08:28:21.214Z,993.74
2023-02-22T08:29:21.221Z,993.77
2023-02-22T08:30:21.263Z,993.74
2023-02-22T08:31:21.286Z,993.73
2023-02-22T08:32:21.409Z,993.81
2023-02-22T08:33:21.355Z,993.76
2023-02-22T08:34:21.142Z,993.75
2023-02-22T08:35:21.124Z,993.70
2023-02-22T08:36:21.109Z,993.69
2023-02-22T08:37:21.093Z,993.78
2023-02-22T08:38:21.084Z,993.75
2023-02-22T08:39:21.071Z,993.72
2023-02-22T08:40:21.059Z,993.71
2023-02-22T08:41:21.062Z,993.67
2023-02-22T08:42:21.045Z,993.61
2023-02-22T08:43:21.018Z,993.63
2023-02-22T08:44:21.012Z,993.62
2023-02-22T08:45:21.036Z,993.60
2023-02-22T08:46:21.047Z,993.59
2023-02-22T08:47:20.960Z,993.64
2023-02-22T08:48:20.960Z,993.62
2023-02-22T08:49:20.933Z,993.64
2023-02-22T08:50:20.924Z,993.65
2023-02-22T08:51:20.909Z,993.66
2023-02-22T08:52:20.897Z,993.63
2023-02-22T08:53:20.885Z,993.68
2023-02-22T08:54:20.870Z,993.65
2023-02-22T08:55:20.857Z,993.67
2023-02-22T08:56:20.842Z,993.66
2023-02-22T08:57:21.851Z,993.63
2023-02-22T08:58:20.815Z,993.64
2023-02-22T08:59:20.801Z,993.62
2023-02-22T09:00:20.788Z,993.58
2023-02-22T09:01:31.449Z,993.62
2023-02-22T09:02:22.857Z,993.61
2023-02-22T09:03:20.805Z,993.49
2023-02-22T09:04:20.738Z,993.53
2023-02-22T09:05:20.730Z,993.57
2023-02-22T09:06:20.710Z,993.56
2023-02-22T09:07:20.694Z,993.54
2023-02-22T09:08:20.683Z,993.52
2023-02-22T09:09:20.668Z,993.50
2023-02-22T09:10:20.672Z,993.48
2023-02-22T09:11:20.651Z,993.48
2023-02-22T09:12:20.634Z,993.50
2023-02-22T09:13:20.652Z,993.48
2023-02-22T09:14:20.604Z,993.40
2023-02-22T09:15:20.590Z,993.35
2023-02-22T09:16:20.645Z,993.41
2023-02-22T09:17:20.587Z,993.39
2023-02-22T09:18:20.594Z,993.41
2023-02-22T09:19:20.588Z,993.38
2023-02-22T09:20:20.601Z,993.33
2023-02-22T09:21:20.520Z,993.40
2023-02-22T09:22:20.503Z,993.37
2023-02-22T09:23:21.621Z,993.43
2023-02-22T09:24:20.512Z,993.39
2023-02-22T09:25:20.507Z,993.41
2023-02-22T09:26:20.450Z,993.39
2023-02-22T09:27:20.445Z,993.30
2023-02-22T09:28:20.430Z,993.38
2023-02-22T09:29:20.410Z,993.33
2023-02-22T09:30:20.483Z,993.37
2023-02-22T09:31:21.159Z,993.36
2023-02-22T09:32:20.530Z,993.41
2023-02-22T09:33:20.474Z,993.41
2023-02-22T09:34:20.351Z,993.41
2023-02-22T09:35:20.345Z,993.41
2023-02-22T09:36:20.326Z,993.42
2023-02-22T09:37:20.311Z,993.36
2023-02-22T09:38:20.300Z,993.35
2023-02-22T09:39:20.288Z,993.51
2023-02-22T09:40:20.274Z,993.34
2023-02-22T09:41:20.260Z,993.38
2023-02-22T09:42:20.248Z,993.31
2023-02-22T09:43:20.236Z,993.34
2023-02-22T09:44:20.229Z,993.32
2023-02-22T09:45:20.212Z,993.23
2023-02-22T09:46:20.641Z,993.26
2023-02-22T09:47:20.232Z,993.26
2023-02-22T09:48:22.339Z,993.25
2023-02-22T09:49:20.193Z,993.24
2023-02-22T09:50:20.150Z,993.19
2023-02-22T09:51:20.132Z,993.20
2023-02-22T09:52:20.120Z,993.18
2023-02-22T09:53:20.108Z,993.15
2023-02-22T09:54:20.100Z,993.17
2023-02-22T09:55:20.083Z,993.20
2023-02-22T09:56:20.455Z,993.18
2023-02-22T09:57:20.084Z,993.12
2023-02-22T09:58:20.048Z,993.20
2023-02-22T09:59:20.049Z,993.20
2023-02-22T10:00:20.058Z,993.15
2023-02-22T10:01:20.013Z,993.13
2023-02-22T10:02:20.009Z,993.11
2023-02-22T10:03:21.457Z,993.12
2023-02-22T10:04:19.969Z,993.12
2023-02-22T10:05:20.073Z,993.08
2023-02-22T10:06:19.941Z,993.13
2023-02-22T10:07:19.929Z,993.11
2023-02-22T10:08:19.921Z,993.12
2023-02-22T10:09:19.907Z,993.12
2023-02-22T10:10:20.016Z,993.12
2023-02-22T10:11:19.876Z,993.08
2023-02-22T10:12:19.867Z,993.10
2023-02-22T10:13:19.847Z,993.08
2023-02-22T10:14:19.836Z,993.04
2023-02-22T10:15:19.832Z,993.04
2023-02-22T10:16:20.246Z,993.01
2023-02-22T10:17:19.827Z,993.04
2023-02-22T10:18:19.787Z,993.02
2023-02-22T10:19:19.769Z,993.03
2023-02-22T10:20:19.867Z,992.99
2023-02-22T10:21:19.847Z,993.00
2023-02-22T10:22:19.742Z,992.97
2023-02-22T10:23:19.716Z,993.01
2023-02-22T10:24:19.705Z,992.98
2023-02-22T10:25:19.689Z,992.97
2023-02-22T10:26:19.971Z,992.97
2023-02-22T10:27:19.662Z,992.94
2023-02-22T10:28:19.651Z,992.92
2023-02-22T10:29:19.636Z,992.91
2023-02-22T10:30:25.095Z,992.95
2023-02-22T10:31:19.767Z,992.91
2023-02-22T10:32:19.642Z,992.92
2023-02-22T10:33:19.585Z,992.92
2023-02-22T10:34:19.572Z,992.90
2023-02-22T10:35:19.565Z,992.89
2023-02-22T10:36:19.784Z,992.86
2023-02-22T10:37:19.593Z,992.88
2023-02-22T10:38:19.518Z,992.89
2023-02-22T10:39:19.574Z,992.87
2023-02-22T10:40:19.505Z,992.88
2023-02-22T10:41:19.476Z,992.84
2023-02-22T10:42:19.463Z,992.85
2023-02-22T10:43:19.450Z,992.85
2023-02-22T10:44:19.440Z,992.88
2023-02-22T10:45:19.422Z,992.85
2023-02-22T10:46:19.895Z,992.86
2023-02-22T10:47:21.794Z,992.84
2023-02-22T10:48:19.388Z,992.83
2023-02-22T10:49:19.367Z,992.84
2023-02-22T10:50:19.358Z,992.86
2023-02-22T10:51:19.356Z,992.88
2023-02-22T10:52:19.360Z,992.77
2023-02-22T10:53:19.347Z,992.77
2023-02-22T10:54:19.314Z,992.74
2023-02-22T10:55:19.296Z,992.68
2023-02-22T10:57:19.268Z,992.73
2023-02-22T10:58:19.255Z,992.65
2023-02-22T10:59:19.240Z,992.72
2023-02-22T11:00:19.260Z,992.71
2023-02-22T11:01:19.491Z,992.67
2023-02-22T11:02:19.202Z,992.64
2023-02-22T11:03:19.188Z,992.64
2023-02-22T11:04:19.173Z,992.66
2023-02-22T11:05:19.250Z,992.65
2023-02-22T11:06:19.152Z,992.64
2023-02-22T11:07:19.138Z,992.63
2023-02-22T11:08:19.121Z,992.64
2023-02-22T11:09:19.175Z,992.61
2023-02-22T11:10:19.094Z,992.65
2023-02-22T11:11:19.082Z,992.61
2023-02-22T11:12:19.068Z,992.63
2023-02-22T11:13:19.059Z,992.58
2023-02-22T11:14:19.043Z,992.64
2023-02-22T11:15:19.054Z,992.68
2023-02-22T11:16:19.050Z,992.64
2023-02-22T11:17:19.005Z,992.58
2023-02-22T11:18:18.989Z,992.55
2023-02-22T11:19:18.974Z,992.54
2023-02-22T11:20:18.962Z,992.51
2023-02-22T11:21:19.238Z,992.56
2023-02-22T11:22:18.936Z,992.54
2023-02-22T11:23:18.922Z,992.56
2023-02-22T11:24:18.910Z,992.56
2023-02-22T11:25:18.928Z,992.51
2023-02-22T11:26:18.884Z,992.44
2023-02-22T11:27:18.870Z,992.45
2023-02-22T11:28:18.856Z,992.45
2023-02-22T11:29:18.865Z,992.43
2023-02-22T11:30:18.861Z,992.42
2023-02-22T11:31:19.120Z,992.37
2023-02-22T11:32:18.846Z,992.38
2023-02-22T11:33:18.790Z,992.31
2023-02-22T11:34:18.778Z,992.33
2023-02-22T11:35:19.919Z,992.34
2023-02-22T11:36:18.750Z,992.37
2023-02-22T11:37:18.738Z,992.40
2023-02-22T11:38:18.726Z,992.29
2023-02-22T11:39:18.713Z,992.30
2023-02-22T11:40:18.695Z,992.24
2023-02-22T11:41:19.143Z,992.29
2023-02-22T11:42:18.672Z,992.28
2023-02-22T11:43:18.657Z,992.22
2023-02-22T11:44:18.642Z,992.23
2023-02-22T11:45:18.629Z,992.22
2023-02-22T11:46:18.756Z,992.23
2023-02-22T11:47:18.604Z,992.22
2023-02-22T11:48:18.591Z,992.22
2023-02-22T11:49:18.586Z,992.17
2023-02-22T11:50:18.592Z,992.19
2023-02-22T11:51:18.924Z,992.16
2023-02-22T11:52:18.553Z,992.17
2023-02-22T11:53:18.523Z,992.12
2023-02-22T11:54:18.510Z,992.12
2023-02-22T11:55:19.932Z,992.16
2023-02-22T11:56:20.532Z,992.11
2023-02-22T11:57:18.498Z,992.11
2023-02-22T11:58:18.465Z,992.18
2023-02-22T11:59:18.444Z,992.10
2023-02-22T12:00:18.431Z,992.12
2023-02-22T12:01:18.417Z,992.11
2023-02-22T12:02:18.404Z,992.13
2023-02-22T12:03:18.413Z,992.15
2023-02-22T12:04:18.400Z,992.12
2023-02-22T12:05:18.439Z,992.12
2023-02-22T12:06:18.691Z,992.09
2023-02-22T12:07:18.337Z,992.10
2023-02-22T12:08:20.053Z,992.05
2023-02-22T12:09:18.311Z,992.10
2023-02-22T12:10:18.315Z,992.12
2023-02-22T12:11:18.426Z,992.09
2023-02-22T12:12:18.270Z,992.13
2023-02-22T12:13:18.400Z,992.10
2023-02-22T12:14:18.275Z,992.08
2023-02-22T12:15:18.234Z,992.10
2023-02-22T12:16:18.526Z,992.09
2023-02-22T12:17:18.203Z,992.08
2023-02-22T12:18:18.206Z,992.12
2023-02-22T12:19:18.175Z,992.02
2023-02-22T12:20:18.163Z,992.01
2023-02-22T12:21:18.148Z,992.01
2023-02-22T12:22:18.141Z,991.98
2023-02-22T12:23:18.122Z,992.03
2023-02-22T12:24:18.111Z,992.04
2023-02-22T12:25:18.096Z,991.98
2023-02-22T12:26:18.365Z,991.89
2023-02-22T12:27:18.116Z,991.89
2023-02-22T12:28:24.829Z,991.93
2023-02-22T12:29:20.080Z,991.99
2023-02-22T12:30:18.074Z,991.99